createdAt,value
2019-04-03T00:01:21.516Z,34.32
2019-04-03T00:03:53.443Z,33.77
2019-04-03T00:06:25.475Z,34.26
2019-04-03T00:08:57.485Z,34.44
2019-04-03T00:11:29.420Z,34.56
2019-04-03T00:14:01.346Z,34.50
2019-04-03T00:16:33.246Z,34.52
2019-04-03T00:19:05.556Z,34.64
2019-04-03T00:21:36.502Z,34.85
2019-04-03T00:24:09.179Z,34.67
2019-04-03T00:26:41.067Z,34.94
2019-04-03T00:29:13.052Z,35.06
2019-04-03T00:31:45.056Z,35.05
2019-04-03T00:34:17.125Z,35.04
2019-04-03T00:36:49.125Z,35.13
2019-04-03T00:39:22.661Z,35.18
2019-04-03T00:41:55.216Z,35.35
2019-04-03T00:44:27.286Z,35.44
2019-04-03T00:46:59.305Z,35.38
2019-04-03T00:49:31.511Z,35.23
2019-04-03T00:52:03.523Z,35.32
2019-04-03T00:54:35.596Z,35.40
2019-04-03T00:57:07.506Z,35.56
2019-04-03T00:59:39.446Z,35.80
2019-04-03T01:02:11.466Z,36.08
2019-04-03T01:04:44.069Z,36.06
2019-04-03T01:07:16.152Z,35.98
2019-04-03T01:09:48.085Z,35.91
2019-04-03T01:12:20.134Z,36.02
2019-04-03T01:14:53.074Z,36.13
2019-04-03T01:17:24.034Z,36.14
2019-04-03T01:19:55.814Z,36.82
2019-04-03T01:22:27.759Z,36.25
2019-04-03T01:24:59.808Z,36.40
2019-04-03T01:27:32.095Z,36.37
2019-04-03T01:30:04.276Z,36.41
2019-04-03T01:32:36.905Z,36.44
2019-04-03T01:35:09.733Z,36.63
2019-04-03T01:37:42.354Z,36.61
2019-04-03T01:40:14.266Z,36.59
2019-04-03T01:42:46.296Z,36.70
2019-04-03T01:45:18.434Z,36.89
2019-04-03T01:47:49.489Z,36.97
2019-04-03T01:50:21.364Z,37.40
2019-04-03T01:52:52.430Z,37.16
2019-04-03T01:55:24.363Z,37.56
2019-04-03T01:57:56.314Z,37.14
2019-04-03T02:00:28.395Z,36.96
2019-04-03T02:03:01.947Z,37.18
2019-04-03T02:05:33.997Z,36.92
2019-04-03T02:08:05.056Z,37.07
2019-04-03T02:10:37.277Z,37.74
2019-04-03T02:13:09.385Z,37.12
2019-04-03T02:15:41.313Z,37.08
2019-04-03T02:18:14.334Z,37.08
2019-04-03T02:20:46.274Z,37.27
2019-04-03T02:23:18.366Z,37.22
2019-04-03T02:25:50.268Z,37.30
2019-04-03T02:28:22.167Z,37.38
2019-04-03T02:30:55.237Z,37.42
2019-04-03T02:33:28.545Z,37.64
2019-04-03T02:35:59.829Z,37.97
2019-04-03T02:38:30.866Z,37.64
2019-04-03T02:41:04.052Z,38.35
2019-04-03T02:43:36.355Z,37.66
2019-04-03T02:46:08.105Z,37.58
2019-04-03T02:48:40.102Z,38.56
2019-04-03T02:51:12.596Z,37.76
2019-04-03T02:53:46.343Z,37.88
2019-04-03T02:56:18.290Z,38.14
2019-04-03T02:58:53.389Z,37.91
2019-04-03T03:01:23.999Z,37.87
2019-04-03T03:03:56.243Z,37.87
2019-04-03T03:06:31.791Z,38.01
2019-04-03T03:09:02.435Z,38.24
2019-04-03T03:11:35.623Z,37.94
2019-04-03T03:14:08.315Z,37.94
2019-04-03T03:16:40.747Z,37.89
2019-04-03T03:19:12.663Z,38.16
2019-04-03T03:21:45.544Z,38.79
2019-04-03T03:24:18.907Z,38.10
2019-04-03T03:26:51.796Z,38.26
2019-04-03T03:29:26.779Z,38.36
2019-04-03T03:32:11.633Z,38.53
2019-04-03T03:34:51.515Z,38.55
2019-04-03T03:37:12.185Z,38.49
2019-04-03T03:39:44.546Z,38.59
2019-04-03T03:42:16.898Z,38.71
2019-04-03T03:44:49.901Z,39.00
2019-04-03T03:47:21.919Z,38.91
2019-04-03T03:49:54.632Z,39.04
2019-04-03T03:52:27.082Z,39.14
2019-04-03T03:55:00.520Z,39.32
2019-04-03T03:57:33.569Z,39.45
2019-04-03T04:00:06.900Z,39.35
2019-04-03T04:02:43.258Z,39.49
2019-04-03T04:05:13.383Z,39.47
2019-04-03T04:07:44.457Z,39.50
2019-04-03T04:10:16.635Z,40.60
2019-04-03T04:12:49.692Z,39.58
2019-04-03T04:15:22.255Z,39.79
2019-04-03T04:17:54.776Z,39.79
2019-04-03T04:20:28.295Z,39.81
2019-04-03T04:23:01.226Z,39.68
2019-04-03T04:25:33.326Z,39.78
2019-04-03T04:28:04.894Z,39.88
2019-04-03T04:30:37.139Z,40.90
2019-04-03T04:33:08.010Z,39.85
2019-04-03T04:35:39.876Z,41.39
2019-04-03T04:38:10.904Z,39.98
2019-04-03T04:40:43.016Z,41.51
2019-04-03T04:43:15.186Z,40.00
2019-04-03T04:45:47.220Z,40.06
2019-04-03T04:48:20.750Z,40.07
2019-04-03T04:50:55.109Z,40.03
2019-04-03T04:53:29.371Z,40.16
2019-04-03T04:56:00.186Z,40.25
2019-04-03T04:58:32.129Z,40.06
2019-04-03T05:01:04.146Z,40.14
2019-04-03T05:03:36.235Z,39.87
2019-04-03T05:06:08.999Z,40.08
2019-04-03T05:08:41.342Z,40.83
2019-04-03T05:11:12.295Z,39.79
2019-04-03T05:13:46.411Z,40.56
2019-04-03T05:16:20.178Z,39.89
2019-04-03T05:18:51.746Z,39.26
2019-04-03T05:21:24.247Z,39.83
2019-04-03T05:24:05.261Z,39.07
2019-04-03T05:26:31.936Z,38.86
2019-04-03T05:29:04.674Z,39.28
2019-04-03T05:31:39.049Z,38.86
2019-04-03T05:34:12.665Z,38.80
2019-04-03T05:36:44.736Z,38.88
2019-04-03T05:39:15.740Z,38.63
2019-04-03T05:41:47.691Z,39.49
2019-04-03T05:44:22.956Z,38.54
2019-04-03T05:46:53.696Z,38.15
2019-04-03T05:49:25.874Z,38.20
2019-04-03T05:51:56.894Z,37.87
2019-04-03T05:54:29.130Z,38.08
2019-04-03T05:57:01.385Z,37.74
2019-04-03T05:59:33.822Z,37.34
2019-04-03T06:02:14.653Z,37.03
2019-04-03T06:04:40.812Z,36.81
2019-04-03T06:07:17.523Z,37.07
2019-04-03T06:09:48.857Z,36.34
2019-04-03T06:12:20.894Z,35.83
2019-04-03T06:14:52.849Z,35.91
2019-04-03T06:17:24.814Z,35.72
2019-04-03T06:19:56.746Z,35.46
2019-04-03T06:22:28.733Z,35.24
2019-04-03T06:25:01.034Z,35.01
2019-04-03T06:27:33.132Z,34.61
2019-04-03T06:30:06.598Z,34.72
2019-04-03T06:32:38.603Z,34.75
2019-04-03T06:35:13.346Z,34.09
2019-04-03T06:37:44.366Z,33.74
2019-04-03T06:40:16.709Z,33.94
2019-04-03T06:42:49.099Z,33.76
2019-04-03T06:45:21.205Z,33.30
2019-04-03T06:47:53.323Z,33.52
2019-04-03T06:50:24.398Z,33.09
2019-04-03T06:52:56.360Z,32.39
2019-04-03T06:55:27.404Z,32.30
2019-04-03T06:57:59.069Z,31.86
2019-04-03T07:00:31.177Z,32.66
2019-04-03T07:03:04.008Z,32.67
2019-04-03T07:05:36.946Z,31.83
2019-04-03T07:08:09.045Z,31.95
2019-04-03T07:10:41.137Z,32.50
2019-04-03T07:13:15.221Z,32.26
2019-04-03T07:15:47.386Z,31.60
2019-04-03T07:18:19.394Z,31.05
2019-04-03T07:20:52.279Z,31.25
2019-04-03T07:23:26.073Z,30.83
2019-04-03T07:25:58.217Z,30.80
2019-04-03T07:28:30.944Z,30.77
2019-04-03T07:31:03.216Z,30.61
2019-04-03T07:33:35.076Z,30.45
2019-04-03T07:36:07.046Z,30.10
2019-04-03T07:38:39.085Z,29.74
2019-04-03T07:41:11.230Z,29.17
2019-04-03T07:43:43.168Z,29.26
2019-04-03T07:46:15.106Z,27.87
2019-04-03T07:48:47.008Z,29.24
2019-04-03T07:51:18.949Z,29.12
2019-04-03T07:53:51.626Z,29.20
2019-04-03T07:56:25.571Z,28.62
2019-04-03T07:58:57.566Z,27.90
2019-04-03T08:01:29.701Z,27.94
2019-04-03T08:04:00.922Z,27.97
2019-04-03T08:06:33.010Z,26.45
2019-04-03T08:09:09.923Z,27.85
2019-04-03T08:11:42.745Z,26.98
2019-04-03T08:14:14.764Z,27.15
2019-04-03T08:16:48.195Z,27.40
2019-04-03T08:19:22.241Z,26.89
2019-04-03T08:21:54.294Z,26.90
2019-04-03T08:24:26.215Z,27.01
2019-04-03T08:26:58.164Z,26.27
2019-04-03T08:29:31.049Z,26.78
2019-04-03T08:32:03.807Z,26.27
2019-04-03T08:34:35.787Z,25.28
2019-04-03T08:37:10.358Z,25.90
2019-04-03T08:39:41.576Z,25.92
2019-04-03T08:42:13.808Z,25.99
2019-04-03T08:44:45.986Z,25.76
2019-04-03T08:47:18.389Z,24.30
2019-04-03T08:49:49.351Z,24.68
2019-04-03T08:52:21.157Z,22.03
2019-04-03T08:54:53.126Z,24.78
2019-04-03T08:57:25.086Z,24.74
2019-04-03T08:59:59.613Z,24.31
2019-04-03T09:02:30.926Z,24.96
2019-04-03T09:05:02.361Z,24.83
2019-04-03T09:07:34.207Z,20.94
2019-04-03T09:10:07.864Z,24.23
2019-04-03T09:12:41.247Z,24.84
2019-04-03T09:15:14.770Z,24.16
2019-04-03T09:17:46.873Z,23.95
2019-04-03T09:20:18.906Z,22.79
2019-04-03T09:22:52.974Z,23.63
2019-04-03T09:25:23.811Z,20.26
2019-04-03T09:27:56.045Z,23.74
2019-04-03T09:30:28.646Z,23.81
2019-04-03T09:33:00.863Z,23.09
2019-04-03T09:35:33.264Z,22.52
2019-04-03T09:38:04.395Z,22.75
2019-04-03T09:40:36.678Z,20.73
2019-04-03T09:43:08.746Z,22.90
2019-04-03T09:45:40.763Z,22.74
2019-04-03T09:48:12.771Z,21.66
2019-04-03T09:50:46.374Z,18.67
2019-04-03T09:53:18.658Z,22.17
2019-04-03T09:55:50.640Z,22.03
2019-04-03T09:58:22.637Z,21.68
2019-04-03T10:00:54.724Z,21.64
2019-04-03T10:03:27.016Z,21.19
2019-04-03T10:06:00.158Z,21.55
2019-04-03T10:08:33.056Z,20.21
2019-04-03T10:11:04.636Z,21.45
2019-04-03T10:13:37.576Z,16.45
2019-04-03T10:16:09.526Z,21.45
2019-04-03T10:18:42.330Z,20.59
2019-04-03T10:21:14.979Z,20.96
2019-04-03T10:23:46.966Z,21.37
2019-04-03T10:26:18.150Z,21.37
2019-04-03T10:28:50.473Z,18.61
2019-04-03T10:31:24.245Z,20.51
2019-04-03T10:33:56.788Z,20.35
2019-04-03T10:36:28.856Z,20.53
2019-04-03T10:39:01.130Z,20.16
2019-04-03T10:41:33.866Z,19.86
2019-04-03T10:44:08.178Z,20.71
2019-04-03T10:46:39.967Z,19.81
2019-04-03T10:49:12.084Z,17.21
2019-04-03T10:51:44.097Z,20.56
2019-04-03T10:54:16.269Z,20.08
2019-04-03T10:56:47.675Z,20.06
2019-04-03T10:59:19.536Z,17.02
2019-04-03T11:01:51.586Z,20.15
2019-04-03T11:04:23.525Z,20.13
2019-04-03T11:06:55.797Z,20.09
2019-04-03T11:09:27.888Z,19.94
2019-04-03T11:12:01.175Z,20.07
2019-04-03T11:14:33.296Z,19.95
2019-04-03T11:17:05.230Z,19.58
2019-04-03T11:19:38.187Z,19.91
2019-04-03T11:22:10.490Z,18.95
2019-04-03T11:24:43.391Z,19.76
2019-04-03T11:27:14.318Z,19.82
2019-04-03T11:29:46.231Z,16.29
2019-04-03T11:32:18.132Z,19.71
2019-04-03T11:34:50.217Z,19.89
2019-04-03T11:37:21.105Z,18.94
2019-04-03T11:40:02.780Z,17.02
2019-04-03T11:42:29.326Z,20.18
2019-04-03T11:45:04.345Z,19.13
2019-04-03T11:47:35.021Z,19.79
2019-04-03T11:50:08.849Z,19.96
2019-04-03T11:52:41.773Z,19.78
2019-04-03T11:55:15.551Z,19.71
2019-04-03T11:57:49.351Z,20.04
2019-04-03T12:00:31.351Z,18.97
2019-04-03T12:03:03.805Z,18.50
2019-04-03T12:05:36.083Z,19.11
2019-04-03T12:08:08.533Z,19.03
2019-04-03T12:10:40.636Z,19.01
2019-04-03T12:13:14.229Z,18.90
2019-04-03T12:15:46.791Z,19.47
2019-04-03T12:18:18.946Z,19.58
2019-04-03T12:20:51.096Z,19.42
2019-04-03T12:23:22.570Z,18.93
2019-04-03T12:25:54.394Z,16.89
2019-04-03T12:28:26.553Z,19.25
2019-04-03T12:30:58.516Z,19.05
2019-04-03T12:33:30.446Z,19.17
2019-04-03T12:36:02.434Z,19.04
2019-04-03T12:38:34.453Z,18.68
2019-04-03T12:41:06.620Z,18.72
2019-04-03T12:43:37.504Z,19.07
2019-04-03T12:46:09.802Z,15.96
2019-04-03T12:48:42.654Z,18.88
2019-04-03T12:51:14.753Z,18.67
2019-04-03T12:53:48.442Z,19.54
2019-04-03T12:56:20.265Z,19.69
2019-04-03T12:58:52.434Z,19.28
2019-04-03T13:01:25.483Z,19.26
2019-04-03T13:03:57.514Z,18.98
2019-04-03T13:06:29.593Z,18.80
2019-04-03T13:09:01.772Z,18.58
2019-04-03T13:11:35.128Z,18.53
2019-04-03T13:14:08.409Z,19.07
2019-04-03T13:16:41.780Z,18.41
2019-04-03T13:19:15.980Z,18.78
2019-04-03T13:21:48.196Z,16.72
2019-04-03T13:24:20.222Z,18.97
2019-04-03T13:26:52.759Z,18.80
2019-04-03T13:29:25.194Z,18.49
2019-04-03T13:31:56.212Z,19.12
2019-04-03T13:34:30.852Z,16.45
2019-04-03T13:37:02.195Z,19.50
2019-04-03T13:39:34.759Z,19.44
2019-04-03T13:42:07.293Z,19.38
2019-04-03T13:44:39.639Z,19.50
2019-04-03T13:47:11.739Z,18.55
2019-04-03T13:49:43.108Z,19.89
2019-04-03T13:52:15.393Z,18.20
2019-04-03T13:54:47.842Z,19.93
2019-04-03T13:57:20.416Z,19.82
2019-04-03T13:59:52.531Z,19.81
2019-04-03T14:02:25.626Z,19.71
2019-04-03T14:04:59.194Z,19.03
2019-04-03T14:07:31.604Z,20.12
2019-04-03T14:10:04.587Z,19.92
2019-04-03T14:12:38.749Z,20.06
2019-04-03T14:15:11.066Z,20.24
2019-04-03T14:17:54.125Z,19.15
2019-04-03T14:20:18.854Z,19.77
2019-04-03T14:22:51.004Z,20.06
2019-04-03T14:25:23.448Z,19.76
2019-04-03T14:27:55.992Z,18.42
2019-04-03T14:30:29.084Z,20.31
2019-04-03T14:33:01.129Z,19.97
2019-04-03T14:35:48.133Z,20.23
2019-04-03T14:38:05.785Z,18.10
2019-04-03T14:40:37.764Z,20.55
2019-04-03T14:43:09.841Z,20.71
2019-04-03T14:45:41.332Z,20.11
2019-04-03T14:48:13.146Z,19.24
2019-04-03T14:50:45.457Z,21.27
2019-04-03T14:53:17.826Z,21.26
2019-04-03T14:55:51.293Z,21.37
2019-04-03T14:58:25.479Z,21.50
2019-04-03T15:00:59.721Z,21.70
2019-04-03T15:03:34.050Z,20.25
2019-04-03T15:06:05.899Z,21.72
2019-04-03T15:08:38.964Z,21.75
2019-04-03T15:11:10.065Z,21.79
2019-04-03T15:13:42.102Z,19.36
2019-04-03T15:16:13.247Z,22.23
2019-04-03T15:18:45.144Z,20.08
2019-04-03T15:21:22.204Z,22.17
2019-04-03T15:23:53.076Z,22.28
2019-04-03T15:26:25.073Z,22.20
2019-04-03T15:29:00.003Z,21.93
2019-04-03T15:31:33.548Z,20.94
2019-04-03T15:34:05.715Z,22.54
2019-04-03T15:36:38.996Z,22.37
2019-04-03T15:39:17.165Z,22.65
2019-04-03T15:41:48.744Z,22.17
2019-04-03T15:44:21.584Z,22.36
2019-04-03T15:46:55.027Z,22.70
2019-04-03T15:49:27.815Z,23.08
2019-04-03T15:52:00.048Z,23.41
2019-04-03T15:54:33.662Z,23.00
2019-04-03T15:57:06.153Z,23.55
2019-04-03T15:59:38.714Z,23.76
2019-04-03T16:02:13.315Z,24.01
2019-04-03T16:04:45.546Z,23.95
2019-04-03T16:07:17.725Z,23.89
2019-04-03T16:09:51.277Z,23.84
2019-04-03T16:12:23.659Z,24.24
2019-04-03T16:14:55.746Z,24.13
2019-04-03T16:17:29.203Z,24.16
2019-04-03T16:20:01.528Z,24.44
2019-04-03T16:22:33.627Z,24.50
2019-04-03T16:25:06.280Z,24.67
2019-04-03T16:27:38.526Z,24.92
2019-04-03T16:30:14.226Z,25.10
2019-04-03T16:32:46.237Z,25.02
2019-04-03T16:35:18.475Z,24.96
2019-04-03T16:37:50.615Z,23.86
2019-04-03T16:40:23.611Z,24.11
2019-04-03T16:42:55.867Z,25.39
2019-04-03T16:45:26.944Z,24.86
2019-04-03T16:47:58.787Z,24.44
2019-04-03T16:50:30.453Z,25.51
2019-04-03T16:53:02.394Z,24.64
2019-04-03T16:55:34.574Z,25.85
2019-04-03T16:58:05.774Z,25.75
2019-04-03T17:00:40.380Z,24.12
2019-04-03T17:03:11.768Z,25.73
2019-04-03T17:05:43.620Z,25.62
2019-04-03T17:08:17.057Z,24.55
2019-04-03T17:10:49.282Z,25.88
2019-04-03T17:13:21.528Z,25.84
2019-04-03T17:15:55.497Z,26.00
2019-04-03T17:18:29.193Z,25.93
2019-04-03T17:21:00.674Z,26.00
2019-04-03T17:23:32.684Z,24.89
2019-04-03T17:26:04.010Z,25.86
2019-04-03T17:28:36.044Z,25.38
2019-04-03T17:31:07.526Z,26.04
2019-04-03T17:33:39.314Z,25.35
2019-04-03T17:36:11.720Z,26.13
2019-04-03T17:38:46.744Z,26.19
2019-04-03T17:41:17.574Z,26.29
2019-04-03T17:43:52.179Z,26.44
2019-04-03T17:46:28.303Z,26.08
2019-04-03T17:49:00.686Z,26.42
2019-04-03T17:51:33.644Z,25.64
2019-04-03T17:54:07.774Z,25.92
2019-04-03T17:56:42.708Z,26.14
2019-04-03T17:59:18.118Z,26.42
2019-04-03T18:01:52.161Z,26.35
2019-04-03T18:04:22.820Z,26.39
2019-04-03T18:06:57.253Z,26.11
2019-04-03T18:09:28.936Z,25.50
2019-04-03T18:12:01.097Z,25.44
2019-04-03T18:14:48.316Z,26.18
2019-04-03T18:17:25.597Z,26.28
2019-04-03T18:20:01.014Z,25.72
2019-04-03T18:22:34.766Z,26.39
2019-04-03T18:25:09.494Z,26.37
2019-04-03T18:27:41.694Z,26.36
2019-04-03T18:30:14.414Z,25.97
2019-04-03T18:32:46.737Z,26.53
2019-04-03T18:35:17.766Z,26.51
2019-04-03T18:37:49.546Z,25.50
2019-04-03T18:40:21.688Z,26.54
2019-04-03T18:42:53.746Z,26.60
2019-04-03T18:45:26.024Z,26.68
2019-04-03T18:47:58.329Z,26.73
2019-04-03T18:50:29.630Z,26.59
2019-04-03T18:53:01.727Z,25.76
2019-04-03T18:55:34.756Z,26.82
2019-04-03T18:58:06.255Z,26.08
2019-04-03T19:00:38.176Z,26.97
2019-04-03T19:03:10.286Z,26.89
2019-04-03T19:05:42.818Z,26.66
2019-04-03T19:08:18.163Z,27.03
2019-04-03T19:11:01.605Z,27.07
2019-04-03T19:13:25.414Z,27.01
2019-04-03T19:16:02.033Z,27.04
2019-04-03T19:18:33.190Z,27.13
2019-04-03T19:21:05.297Z,27.07
2019-04-03T19:23:48.904Z,27.23
2019-04-03T19:26:11.126Z,27.29
2019-04-03T19:28:44.277Z,27.16
2019-04-03T19:31:16.250Z,27.25
2019-04-03T19:33:48.238Z,27.41
2019-04-03T19:36:20.570Z,27.44
2019-04-03T19:38:53.611Z,27.58
2019-04-03T19:41:25.730Z,27.66
2019-04-03T19:44:00.564Z,27.74
2019-04-03T19:46:31.625Z,27.82
2019-04-03T19:49:03.796Z,27.78
2019-04-03T19:51:37.522Z,27.79
2019-04-03T19:54:09.655Z,27.91
2019-04-03T19:56:42.596Z,28.00
2019-04-03T19:59:15.868Z,28.15
2019-04-03T20:01:48.065Z,28.17
2019-04-03T20:04:20.027Z,28.21
2019-04-03T20:06:52.962Z,28.13
2019-04-03T20:09:25.562Z,28.20
2019-04-03T20:11:57.637Z,28.21
2019-04-03T20:14:29.577Z,28.30
2019-04-03T20:17:01.567Z,28.34
2019-04-03T20:19:32.694Z,28.35
2019-04-03T20:22:06.736Z,28.02
2019-04-03T20:24:38.466Z,28.42
2019-04-03T20:27:10.527Z,28.26
2019-04-03T20:29:42.426Z,28.40
2019-04-03T20:32:14.447Z,28.47
2019-04-03T20:34:46.386Z,28.46
2019-04-03T20:37:18.556Z,28.57
2019-04-03T20:39:50.792Z,28.61
2019-04-03T20:42:23.116Z,28.54
2019-04-03T20:44:55.175Z,28.66
2019-04-03T20:47:27.507Z,28.92
2019-04-03T20:49:59.591Z,28.94
2019-04-03T20:52:30.905Z,29.15
2019-04-03T20:55:03.979Z,28.79
2019-04-03T20:57:35.056Z,29.09
2019-04-03T21:00:11.901Z,29.52
2019-04-03T21:02:44.764Z,29.27
2019-04-03T21:05:18.723Z,29.36
2019-04-03T21:07:50.676Z,29.52
2019-04-03T21:10:22.646Z,29.58
2019-04-03T21:12:55.716Z,29.55
2019-04-03T21:15:27.753Z,29.44
2019-04-03T21:17:59.826Z,29.58
2019-04-03T21:20:31.815Z,29.64
2019-04-03T21:23:03.927Z,29.79
2019-04-03T21:25:36.669Z,29.84
2019-04-03T21:28:08.955Z,29.95
2019-04-03T21:30:46.306Z,30.01
2019-04-03T21:33:18.346Z,30.14
2019-04-03T21:35:50.376Z,30.27
2019-04-03T21:38:22.486Z,30.28
2019-04-03T21:40:55.835Z,30.36
2019-04-03T21:43:29.184Z,30.16
2019-04-03T21:48:47.868Z,30.37
2019-04-03T21:51:20.868Z,30.50
2019-04-03T21:53:55.708Z,30.50
2019-04-03T21:56:27.426Z,30.49
2019-04-03T21:58:59.525Z,30.54
2019-04-03T22:01:31.616Z,30.58
2019-04-03T22:04:03.575Z,30.80
2019-04-03T22:06:35.546Z,30.80
2019-04-03T22:09:12.262Z,30.93
2019-04-03T22:11:44.496Z,31.01
2019-04-03T22:14:16.666Z,30.97
2019-04-03T22:16:50.499Z,31.10
2019-04-03T22:19:22.136Z,31.14
2019-04-03T22:21:54.256Z,31.17
2019-04-03T22:24:26.315Z,31.21
2019-04-03T22:26:58.424Z,31.29
2019-04-03T22:29:30.508Z,31.50
2019-04-03T22:32:02.536Z,31.55
2019-04-03T22:34:35.415Z,31.51
2019-04-03T22:37:07.306Z,31.46
2019-04-03T22:39:39.836Z,31.75
2019-04-03T22:42:14.722Z,31.72
2019-04-03T22:44:47.892Z,31.77
2019-04-03T22:47:19.608Z,31.88
2019-04-03T22:49:52.169Z,31.91
2019-04-03T22:52:24.337Z,31.93
2019-04-03T22:54:56.226Z,32.00
2019-04-03T22:57:28.128Z,32.14
2019-04-03T23:00:00.287Z,32.43
2019-04-03T23:02:33.647Z,32.30
2019-04-03T23:05:06.028Z,32.32
2019-04-03T23:07:38.016Z,32.45
2019-04-03T23:10:10.796Z,32.38
2019-04-03T23:12:42.855Z,32.55
2019-04-03T23:15:15.085Z,32.68
2019-04-03T23:17:46.124Z,32.79
2019-04-03T23:20:18.146Z,33.46
2019-04-03T23:22:50.396Z,32.72
2019-04-03T23:25:23.107Z,32.90
2019-04-03T23:27:55.188Z,33.08
2019-04-03T23:30:27.296Z,33.17
2019-04-03T23:32:59.236Z,33.31
2019-04-03T23:35:32.117Z,33.27
2019-04-03T23:38:04.156Z,33.45
2019-04-03T23:40:36.266Z,33.47
2019-04-03T23:43:08.955Z,33.80
2019-04-03T23:45:43.523Z,33.48
2019-04-03T23:48:17.592Z,33.53
2019-04-03T23:50:52.369Z,33.64
2019-04-03T23:53:22.972Z,33.81
2019-04-03T23:55:55.116Z,33.91
2019-04-03T23:58:27.175Z,34.10
